Time,TemperatureF,DewpointF,PressureIn,WindDirection,WindDirectionDegrees,WindSpeedMPH,WindSpeedGustMPH,Humidity,HourlyPrecipIn,Conditions,Clouds,dailyrainin,SoftwareType,DateUTC
2013-06-21 00:02:00,70.6,66.0,30.17,SSE,149,0.0,1.0,85,0.00,,,0.00,weatherlink.com 1.10,2013-06-21 05:02:00,
2013-06-21 00:17:00,69.4,66.0,30.17,SSE,149,0.0,2.0,88,0.00,,,0.00,weatherlink.com 1.10,2013-06-21 05:17:00,
2013-06-21 00:32:00,68.8,66.0,30.17,SSE,149,3.0,3.0,89,0.00,,,0.00,weatherlink.com 1.10,2013-06-21 05:32:00,
2013-06-21 00:47:00,68.8,65.0,30.16,SSE,149,0.0,3.0,88,0.00,,,0.00,weatherlink.com 1.10,2013-06-21 05:47:00,
2013-06-21 01:02:00,68.0,65.0,30.16,SSE,149,1.0,2.0,90,0.00,,,0.00,weatherlink.com 1.10,2013-06-21 06:02:00,
2013-06-21 01:17:00,68.4,65.0,30.16,SSE,149,0.0,3.0,88,0.00,,,0.00,weatherlink.com 1.10,2013-06-21 06:17:00,
2013-06-21 01:32:00,67.9,64.0,30.16,SSE,149,1.0,1.0,88,0.00,,,0.00,weatherlink.com 1.10,2013-06-21 06:32:00,
2013-06-21 01:47:00,66.4,64.0,30.16,SSE,149,1.0,3.0,91,0.00,,,0.00,weatherlink.com 1.10,2013-06-21 06:47:00,
2013-06-21 02:02:00,66.4,64.0,30.16,SSE,149,0.0,2.0,91,0.00,,,0.00,weatherlink.com 1.10,2013-06-21 07:02:00,
2013-06-21 02:17:00,66.3,64.0,30.16,SSE,149,2.0,3.0,92,0.00,,,0.00,weatherlink.com 1.10,2013-06-21 07:17:00,
2013-06-21 02:33:00,65.8,64.0,30.16,SSE,149,0.0,2.0,92,0.00,,,0.00,weatherlink.com 1.10,2013-06-21 07:33:00,
2013-06-21 02:48:00,65.6,63.0,30.16,SSE,149,0.0,1.0,91,0.00,,,0.00,weatherlink.com 1.10,2013-06-21 07:48:00,
2013-06-21 03:03:00,65.3,63.0,30.15,SSE,149,0.0,0.0,92,0.00,,,0.00,weatherlink.com 1.10,2013-06-21 08:03:00,
2013-06-21 03:18:00,64.8,63.0,30.15,SSE,149,0.0,0.0,93,0.00,,,0.00,weatherlink.com 1.10,2013-06-21 08:18:00,
2013-06-21 03:33:00,64.1,62.0,30.15,SSE,149,0.0,1.0,93,0.00,,,0.00,weatherlink.com 1.10,2013-06-21 08:33:00,
2013-06-21 03:48:00,63.5,62.0,30.15,SSE,149,2.0,2.0,95,0.00,,,0.00,weatherlink.com 1.10,2013-06-21 08:48:00,
2013-06-21 04:03:00,64.1,63.0,30.15,SSE,149,1.0,2.0,95,0.00,,,0.00,weatherlink.com 1.10,2013-06-21 09:03:00,
2013-06-21 04:18:00,65.6,63.0,30.16,SSE,149,1.0,2.0,91,0.00,,,0.00,weatherlink.com 1.10,2013-06-21 09:18:00,
2013-06-21 04:33:00,66.0,62.0,30.16,SSE,149,1.0,3.0,87,0.00,,,0.00,weatherlink.com 1.10,2013-06-21 09:33:00,
2013-06-21 04:48:00,64.8,62.0,30.16,SSE,149,0.0,1.0,89,0.00,,,0.00,weatherlink.com 1.10,2013-06-21 09:48:00,
2013-06-21 05:03:00,65.9,62.0,30.16,SSE,149,0.0,2.0,88,0.00,,,0.00,weatherlink.com 1.10,2013-06-21 10:03:00,
2013-06-21 05:18:00,65.4,62.0,30.15,SSE,149,0.0,4.0,88,0.00,,,0.00,weatherlink.com 1.10,2013-06-21 10:18:00,
2013-06-21 05:33:00,65.0,61.0,30.16,SSE,149,0.0,1.0,88,0.00,,,0.00,weatherlink.com 1.10,2013-06-21 10:33:00,
2013-06-21 05:48:00,64.4,62.0,30.16,SSE,149,0.0,1.0,90,0.00,,,0.00,weatherlink.com 1.10,2013-06-21 10:48:00,
2013-06-21 06:03:00,63.9,62.0,30.16,SSE,149,0.0,1.0,92,0.00,,,0.00,weatherlink.com 1.10,2013-06-21 11:03:00,
2013-06-21 06:18:00,64.2,62.0,30.17,SSE,149,1.0,3.0,92,0.00,,,0.00,weatherlink.com 1.10,2013-06-21 11:18:00,
2013-06-21 06:33:00,65.8,63.0,30.17,SSE,149,3.0,4.0,91,0.00,,,0.00,weatherlink.com 1.10,2013-06-21 11:33:00,
2013-06-21 06:48:00,67.7,64.0,30.17,SSE,162,3.0,5.0,87,0.00,,,0.00,weatherlink.com 1.10,2013-06-21 11:48:00,
2013-06-21 07:03:00,69.6,65.0,30.18,SSE,166,3.0,5.0,84,0.00,,,0.00,weatherlink.com 1.10,2013-06-21 12:03:00,
2013-06-21 07:18:00,70.5,65.0,30.16,South,170,5.0,7.0,82,0.00,,,0.00,weatherlink.com 1.10,2013-06-21 12:18:00,
2013-06-21 07:33:00,71.6,65.0,30.15,SSE,168,6.0,9.0,79,0.00,,,0.00,weatherlink.com 1.10,2013-06-21 12:33:00,
2013-06-21 07:48:00,73.0,66.0,30.15,SSE,166,3.0,9.0,78,0.00,,,0.00,weatherlink.com 1.10,2013-06-21 12:48:00,
2013-06-21 08:03:00,74.1,65.0,30.14,SSE,166,4.0,12.0,74,0.00,,,0.00,weatherlink.com 1.10,2013-06-21 13:03:00,
2013-06-21 08:18:00,75.7,66.0,30.16,SSE,163,4.0,8.0,73,0.00,,,0.00,weatherlink.com 1.10,2013-06-21 13:18:00,
2013-06-21 08:33:00,77.0,67.0,30.16,South,177,4.0,8.0,70,0.00,,,0.00,weatherlink.com 1.10,2013-06-21 13:33:00,
2013-06-21 08:48:00,78.0,67.0,30.16,South,178,3.0,7.0,70,0.00,,,0.00,weatherlink.com 1.10,2013-06-21 13:48:00,
2013-06-21 09:03:00,78.8,68.0,30.16,South,183,1.0,11.0,69,0.00,,,0.00,weatherlink.com 1.10,2013-06-21 14:03:00,
2013-06-21 09:18:00,79.6,69.0,30.15,SSE,155,5.0,11.0,69,0.00,,,0.00,weatherlink.com 1.10,2013-06-21 14:18:00,
2013-06-21 09:33:00,80.2,69.0,30.16,SSE,164,2.0,13.0,68,0.00,,,0.00,weatherlink.com 1.10,2013-06-21 14:33:00,
2013-06-21 09:48:00,81.7,70.0,30.17,South,187,3.0,8.0,68,0.00,,,0.00,weatherlink.com 1.10,2013-06-21 14:48:00,
2013-06-21 10:03:00,82.1,69.0,30.16,South,190,4.0,11.0,65,0.00,,,0.00,weatherlink.com 1.10,2013-06-21 15:03:00,
2013-06-21 10:18:00,82.6,69.0,30.16,SSW,212,3.0,9.0,64,0.00,,,0.00,weatherlink.com 1.10,2013-06-21 15:18:00,
2013-06-21 10:33:00,83.2,69.0,30.15,South,184,6.0,12.0,63,0.00,,,0.00,weatherlink.com 1.10,2013-06-21 15:33:00,
2013-06-21 10:48:00,83.4,69.0,30.14,South,186,6.0,15.0,63,0.00,,,0.00,weatherlink.com 1.10,2013-06-21 15:48:00,
2013-06-21 11:03:00,83.8,70.0,30.14,SSW,209,5.0,17.0,64,0.00,,,0.00,weatherlink.com 1.10,2013-06-21 16:03:00,
2013-06-21 11:19:00,84.5,69.0,30.14,SSW,195,7.0,10.0,60,0.00,,,0.00,weatherlink.com 1.10,2013-06-21 16:19:00,
2013-06-21 11:34:00,85.2,70.0,30.14,South,180,5.0,12.0,60,0.00,,,0.00,weatherlink.com 1.10,2013-06-21 16:34:00,
2013-06-21 11:49:00,85.4,70.0,30.14,SSW,200,3.0,12.0,60,0.00,,,0.00,weatherlink.com 1.10,2013-06-21 16:49:00,
2013-06-21 12:04:00,85.6,70.0,30.14,South,184,5.0,11.0,59,0.00,,,0.00,weatherlink.com 1.10,2013-06-21 17:04:00,
2013-06-21 12:19:00,85.8,70.0,30.14,South,170,1.0,9.0,59,0.00,,,0.00,weatherlink.com 1.10,2013-06-21 17:19:00,
2013-06-21 12:34:00,85.6,69.0,30.15,South,171,4.0,13.0,58,0.00,,,0.00,weatherlink.com 1.10,2013-06-21 17:34:00,
2013-06-21 12:49:00,85.6,70.0,30.16,South,178,3.0,9.0,59,0.00,,,0.00,weatherlink.com 1.10,2013-06-21 17:49:00,
2013-06-21 13:04:00,85.6,70.0,30.15,South,183,3.0,11.0,59,0.00,,,0.00,weatherlink.com 1.10,2013-06-21 18:04:00,
2013-06-21 13:19:00,85.1,70.0,30.15,ESE,108,2.0,10.0,60,0.00,,,0.00,weatherlink.com 1.10,2013-06-21 18:19:00,
2013-06-21 13:34:00,84.0,71.0,30.14,SSW,205,1.0,6.0,65,0.00,,,0.00,weatherlink.com 1.10,2013-06-21 18:34:00,
2013-06-21 13:49:00,82.3,72.0,30.14,SSE,155,3.0,5.0,70,0.00,,,0.00,weatherlink.com 1.10,2013-06-21 18:49:00,
2013-06-21 14:04:00,82.8,72.0,30.14,SE,135,0.0,4.0,70,0.00,,,0.00,weatherlink.com 1.10,2013-06-21 19:04:00,
2013-06-21 14:19:00,83.6,72.0,30.12,SE,139,1.0,3.0,69,0.00,,,0.00,weatherlink.com 1.10,2013-06-21 19:19:00,
2013-06-21 14:34:00,80.1,71.0,30.14,NNE,12,13.0,25.0,73,0.00,,,0.00,weatherlink.com 1.10,2013-06-21 19:34:00,
2013-06-21 14:49:00,72.9,69.0,30.16,NNW,343,7.0,26.0,87,0.04,,,0.04,weatherlink.com 1.10,2013-06-21 19:49:00,
2013-06-21 15:06:00,-999.0,-99.9,0.00,North,-999,-999.0,-999.0,-999,0.00,,,0.00,weatherlink.com 1.10,2013-06-21 20:06:00,
2013-06-21 15:18:00,-999.0,-99.9,30.18,North,-999,-999.0,-999.0,-999,0.00,,,0.00,weatherlink.com 1.10,2013-06-21 20:18:00,
2013-06-21 15:33:00,70.4,68.0,30.16,ESE,108,2.0,7.0,93,0.04,,,0.04,weatherlink.com 1.10,2013-06-21 20:33:00,
2013-06-21 16:03:00,70.2,69.0,30.12,SSE,161,5.0,7.0,95,0.05,,,0.05,weatherlink.com 1.10,2013-06-21 21:03:00,
2013-06-21 16:18:00,70.1,68.0,30.09,SE,145,5.0,10.0,94,0.06,,,0.06,weatherlink.com 1.10,2013-06-21 21:18:00,
2013-06-21 16:33:00,70.6,69.0,30.05,South,170,7.0,15.0,93,0.02,,,0.06,weatherlink.com 1.10,2013-06-21 21:33:00,
2013-06-21 16:48:00,70.1,68.0,30.00,SE,141,14.0,26.0,94,0.02,,,0.06,weatherlink.com 1.10,2013-06-21 21:48:00,
2013-06-21 17:03:00,70.4,68.0,29.97,South,189,12.0,26.0,93,0.01,,,0.06,weatherlink.com 1.10,2013-06-21 22:03:00,
2013-06-21 17:18:00,71.1,68.0,29.98,South,177,8.0,21.0,90,0.00,,,0.06,weatherlink.com 1.10,2013-06-21 22:18:00,
2013-06-21 17:33:00,70.9,68.0,29.99,South,187,17.0,22.0,90,0.00,,,0.06,weatherlink.com 1.10,2013-06-21 22:33:00,
2013-06-21 17:48:00,71.2,68.0,30.01,SSE,157,5.0,18.0,89,0.00,,,0.06,weatherlink.com 1.10,2013-06-21 22:48:00,
2013-06-21 18:03:00,71.6,68.0,30.04,SE,143,6.0,12.0,87,0.00,,,0.06,weatherlink.com 1.10,2013-06-21 23:03:00,
2013-06-21 18:18:00,71.4,67.0,30.05,South,179,5.0,11.0,86,0.00,,,0.06,weatherlink.com 1.10,2013-06-21 23:18:00,
2013-06-21 18:33:00,71.3,67.0,30.05,SE,126,3.0,7.0,86,0.00,,,0.06,weatherlink.com 1.10,2013-06-21 23:33:00,
2013-06-21 18:49:00,71.2,67.0,30.06,SSW,207,3.0,5.0,86,0.00,,,0.06,weatherlink.com 1.10,2013-06-21 23:49:00,
2013-06-21 19:04:00,71.1,67.0,30.08,WSW,256,4.0,6.0,87,0.00,,,0.06,weatherlink.com 1.10,2013-06-22 00:04:00,
2013-06-21 19:19:00,70.7,67.0,30.07,SW,224,0.0,5.0,88,0.00,,,0.06,weatherlink.com 1.10,2013-06-22 00:19:00,
2013-06-21 19:34:00,70.5,67.0,30.08,SW,236,0.0,3.0,89,0.00,,,0.06,weatherlink.com 1.10,2013-06-22 00:34:00,
2013-06-21 19:49:00,70.1,67.0,30.07,WSW,252,0.0,2.0,89,0.00,,,0.06,weatherlink.com 1.10,2013-06-22 00:49:00,
2013-06-21 20:04:00,69.8,67.0,30.07,WSW,252,0.0,1.0,90,0.00,,,0.06,weatherlink.com 1.10,2013-06-22 01:04:00,
2013-06-21 20:19:00,69.3,67.0,30.07,SSE,166,0.0,5.0,91,0.00,,,0.06,weatherlink.com 1.10,2013-06-22 01:19:00,
2013-06-21 20:34:00,69.0,67.0,30.07,SSW,194,0.0,2.0,92,0.00,,,0.06,weatherlink.com 1.10,2013-06-22 01:34:00,
2013-06-21 20:49:00,69.3,67.0,30.07,South,182,0.0,3.0,91,0.00,,,0.06,weatherlink.com 1.10,2013-06-22 01:49:00,
2013-06-21 21:04:00,70.1,67.0,30.08,SSW,205,1.0,3.0,88,0.00,,,0.06,weatherlink.com 1.10,2013-06-22 02:04:00,
2013-06-21 21:19:00,70.5,67.0,30.09,South,191,0.0,2.0,87,0.00,,,0.06,weatherlink.com 1.10,2013-06-22 02:19:00,
2013-06-21 21:34:00,70.1,67.0,30.09,South,190,0.0,3.0,88,0.00,,,0.06,weatherlink.com 1.10,2013-06-22 02:34:00,
2013-06-21 21:49:00,70.4,66.0,30.10,SSE,152,2.0,4.0,87,0.00,,,0.06,weatherlink.com 1.10,2013-06-22 02:49:00,
2013-06-21 22:04:00,69.5,66.0,30.11,SSE,152,0.0,3.0,89,0.00,,,0.06,weatherlink.com 1.10,2013-06-22 03:04:00,
2013-06-21 22:19:00,68.8,66.0,30.11,SSE,152,2.0,3.0,90,0.00,,,0.06,weatherlink.com 1.10,2013-06-22 03:19:00,
2013-06-21 22:34:00,68.1,66.0,30.11,SSE,152,1.0,2.0,92,0.00,,,0.06,weatherlink.com 1.10,2013-06-22 03:34:00,
2013-06-21 22:49:00,68.1,66.0,30.12,SSE,152,2.0,3.0,93,0.00,,,0.06,weatherlink.com 1.10,2013-06-22 03:49:00,
2013-06-21 23:04:00,67.9,66.0,30.11,SSE,152,1.0,3.0,93,0.00,,,0.06,weatherlink.com 1.10,2013-06-22 04:04:00,
2013-06-21 23:19:00,69.2,67.0,30.12,SSE,152,2.0,3.0,92,0.00,,,0.06,weatherlink.com 1.10,2013-06-22 04:19:00,
2013-06-21 23:34:00,69.6,67.0,30.12,SSE,161,2.0,4.0,91,0.00,,,0.06,weatherlink.com 1.10,2013-06-22 04:34:00,
2013-06-21 23:49:00,69.7,67.0,30.11,SSE,166,1.0,5.0,90,0.00,,,0.06,weatherlink.com 1.10,2013-06-22 04:49:00,